Time;durP1;ratioP1;P1;durP2;ratioP2;P2;SDS_P1;SDS_P2;PMS_P1;PMS_P2;Temp;Humidity;BMP_temperature;BMP_pressure;BME280_temperature;BME280_humidity;BME280_pressure;Samples;Min_cycle;Max_cycle;Signal;HPM_P1;HPM_P2
2022/09/21 00:01:58;;;;;;;5.32;2.40;;;;;;;14.25;64.00;98657.31;5020268;28;20025;-63
2022/09/21 00:04:23;;;;;;;5.88;2.72;;;;;;;14.33;63.51;98656.47;5021340;28;20029;-64
2022/09/21 00:06:49;;;;;;;6.57;2.55;;;;;;;14.37;63.18;98658.59;5020211;28;20436;-63
2022/09/21 00:09:14;;;;;;;6.28;2.50;;;;;;;14.28;63.09;98658.81;5021795;28;20045;-63
2022/09/21 00:11:40;;;;;;;6.78;2.80;;;;;;;14.18;63.90;98664.22;5002047;28;20025;-63
2022/09/21 00:14:09;;;;;;;6.95;2.60;;;;;;;14.10;64.45;98656.38;5022740;28;20060;-64
2022/09/21 00:16:35;;;;;;;7.32;2.72;;;;;;;14.03;64.52;98661.47;5001078;28;20731;-63
2022/09/21 00:19:01;;;;;;;8.65;2.75;;;;;;;14.01;64.28;98664.22;5025578;28;20034;-64
2022/09/21 00:21:27;;;;;;;5.32;2.50;;;;;;;14.00;64.79;98667.00;4999024;28;20025;-62
2022/09/21 00:23:53;;;;;;;6.50;2.60;;;;;;;14.00;64.68;98653.94;5028107;28;20033;-64
2022/09/21 00:26:23;;;;;;;6.75;2.83;;;;;;;13.78;64.88;98631.91;5021309;28;20029;-65
2022/09/21 00:28:53;;;;;;;5.13;2.63;;;;;;;13.91;65.45;98668.84;5021198;28;20052;-63
2022/09/21 00:31:19;;;;;;;6.22;2.83;;;;;;;13.79;65.91;98673.56;5002676;28;20094;-63
2022/09/21 00:33:44;;;;;;;9.30;3.17;;;;;;;13.70;66.16;98665.91;5025020;28;20484;-64
2022/09/21 00:36:12;;;;;;;5.90;2.72;;;;;;;13.68;66.12;98673.88;5017803;28;20037;-63
2022/09/21 00:38:38;;;;;;;5.55;2.58;;;;;;;13.82;66.03;98673.25;5024905;28;20123;-64
2022/09/21 00:41:05;;;;;;;7.13;2.70;;;;;;;13.84;65.85;98667.84;5022577;28;20378;-64
2022/09/21 00:43:33;;;;;;;5.57;2.60;;;;;;;13.73;66.57;98657.75;5025728;28;20031;-64
2022/09/21 00:46:02;;;;;;;5.90;2.70;;;;;;;13.74;66.62;98668.00;4998357;28;20263;-63
2022/09/21 00:48:28;;;;;;;7.13;2.70;;;;;;;13.55;66.73;98669.16;5014645;28;20091;-64
2022/09/21 00:50:56;;;;;;;7.32;2.70;;;;;;;13.54;66.54;98672.72;5017636;28;20788;-63
2022/09/21 00:53:21;;;;;;;5.97;2.80;;;;;;;13.57;66.42;98667.19;5021704;28;20559;-63
2022/09/21 00:55:50;;;;;;;6.47;2.70;;;;;;;13.73;66.09;98674.22;4941954;28;20156;-63
2022/09/21 00:58:19;;;;;;;7.78;2.85;;;;;;;13.74;65.84;98675.84;5001016;28;20044;-62
2022/09/21 01:00:44;;;;;;;6.57;2.38;;;;;;;13.54;66.27;98671.91;5028108;28;20028;-63
2022/09/21 01:03:11;;;;;;;7.15;2.80;;;;;;;13.49;66.68;98679.41;5018627;28;20033;-63
2022/09/21 01:05:36;;;;;;;6.03;2.40;;;;;;;13.63;66.44;98682.22;5004253;28;20456;-63
2022/09/21 01:08:05;;;;;;;7.47;2.58;;;;;;;13.60;66.32;98673.91;5030497;28;20801;-63
2022/09/21 01:10:41;;;;;;;5.25;2.47;;;;;;;13.52;66.65;98674.69;5010283;28;20033;-64
2022/09/21 01:13:23;;;;;;;6.25;2.60;;;;;;;13.53;66.82;98680.75;5020079;28;20053;-62
2022/09/21 01:16:14;;;;;;;6.90;2.25;;;;;;;13.42;66.99;98685.31;5001019;28;20377;-63
2022/09/21 01:18:46;;;;;;;7.20;2.53;;;;;;;13.49;66.96;98690.72;5004109;28;20042;-64
2022/09/21 01:21:23;;;;;;;5.82;2.92;;;;;;;13.42;66.49;98681.88;5034085;28;20025;-63
2022/09/21 01:24:03;;;;;;;8.02;3.42;;;;;;;13.22;66.79;98650.78;5020761;28;20025;-64
2022/09/21 01:26:56;;;;;;;5.60;2.72;;;;;;;13.49;66.81;98689.88;5033903;28;20485;-63
2022/09/21 01:29:41;;;;;;;6.07;2.70;;;;;;;13.46;67.02;98691.81;5018512;28;20567;-63
2022/09/21 01:32:37;;;;;;;7.05;3.13;;;;;;;13.08;67.80;98640.97;5020303;28;20780;-63
2022/09/21 01:35:16;;;;;;;6.00;2.72;;;;;;;13.40;67.93;98687.25;4949105;28;21162;-63
2022/09/21 01:37:49;;;;;;;7.32;3.00;;;;;;;13.40;68.09;98682.03;5021247;28;20020;-63
2022/09/21 01:40:22;;;;;;;8.27;2.53;;;;;;;13.41;67.95;98693.28;4996373;28;20029;-63
2022/09/21 01:42:50;;;;;;;6.50;2.70;;;;;;;13.14;68.49;98649.97;5018029;28;20031;-62
2022/09/21 01:45:18;;;;;;;5.43;2.58;;;;;;;13.06;68.43;98648.16;5024047;28;20034;-63
2022/09/21 01:47:46;;;;;;;5.50;2.17;;;;;;;13.37;67.90;98700.63;5019168;28;20060;-62
2022/09/21 01:50:13;;;;;;;5.05;2.10;;;;;;;13.37;68.10;98692.78;5017204;28;20825;-63
2022/09/21 01:52:46;;;;;;;5.75;2.70;;;;;;;13.43;68.65;98686.94;5021178;28;20036;-63
2022/09/21 01:55:16;;;;;;;5.07;2.33;;;;;;;13.44;68.54;98703.44;4888471;28;21875;-63
2022/09/21 01:57:51;;;;;;;;;;;;;;;13.35;69.26;98704.38;5022760;28;20033;-63
2022/09/21 02:00:16;;;;;;;4.53;1.98;;;;;;;13.36;69.84;98701.63;5021184;28;19928;-61
2022/09/21 02:02:52;;;;;;;4.88;2.15;;;;;;;13.40;70.41;98700.31;5019583;28;20038;-64
2022/09/21 02:05:19;;;;;;;5.72;1.98;;;;;;;13.38;70.53;98707.50;5012484;28;20492;-64
2022/09/21 02:07:45;;;;;;;4.22;1.75;;;;;;;13.22;70.61;98666.47;4999918;28;20029;-64
2022/09/21 02:10:17;;;;;;;4.82;2.22;;;;;;;13.50;69.81;98699.34;5010352;28;20022;-64
2022/09/21 02:12:43;;;;;;;5.30;2.13;;;;;;;13.51;69.80;98706.19;4992953;28;20812;-63
2022/09/21 02:15:09;;;;;;;5.30;2.30;;;;;;;13.48;69.07;98703.91;5012564;28;20025;-63
2022/09/21 02:18:05;;;;;;;4.53;1.90;;;;;;;13.64;67.33;98709.97;5009660;28;20491;-63
2022/09/21 02:20:39;;;;;;;4.65;1.92;;;;;;;13.60;67.36;98718.31;5028846;28;20481;-64
2022/09/21 02:23:21;;;;;;;4.93;1.90;;;;;;;13.58;67.78;98707.19;5021549;28;20056;-63
2022/09/21 02:25:57;;;;;;;5.38;1.80;;;;;;;13.49;68.56;98709.00;4998658;28;20026;-62
2022/09/21 02:28:29;;;;;;;4.28;1.70;;;;;;;13.56;69.00;98712.59;5016736;28;20029;-64
2022/09/21 02:31:01;;;;;;;4.63;1.67;;;;;;;13.60;69.65;98710.47;5018845;28;20021;-64
2022/09/21 02:33:51;;;;;;;5.05;1.90;;;;;;;13.67;70.04;98721.06;5029656;28;20032;-64
2022/09/21 02:36:36;;;;;;;4.00;1.50;;;;;;;13.62;71.13;98701.47;5004658;28;20044;-64
2022/09/21 02:39:06;;;;;;;5.15;1.70;;;;;;;13.68;70.85;98720.13;5020536;28;20030;-64
2022/09/21 02:42:01;;;;;;;4.55;1.70;;;;;;;13.65;71.46;98718.63;5014449;28;20542;-64
2022/09/21 02:44:44;;;;;;;4.28;1.50;;;;;;;13.70;71.43;98715.53;5011775;28;20037;-64
2022/09/21 02:47:17;;;;;;;4.97;1.52;;;;;;;13.67;71.79;98710.63;5019853;28;20044;-64
2022/09/21 02:49:47;;;;;;;6.30;1.55;;;;;;;13.75;71.89;98711.47;4977277;28;20627;-61
2022/09/21 02:52:14;;;;;;;3.80;1.40;;;;;;;13.46;70.71;98668.31;4960958;28;20456;-64
2022/09/21 02:54:43;;;;;;;4.03;1.55;;;;;;;13.78;70.31;98710.31;5014982;28;20107;-64
2022/09/21 02:57:11;;;;;;;3.00;1.05;;;;;;;13.81;69.26;98710.78;5001970;28;20125;-63
2022/09/21 02:59:36;;;;;;;3.58;1.15;;;;;;;13.54;69.42;98674.53;5004041;28;20080;-63
2022/09/21 03:02:03;;;;;;;4.20;1.83;;;;;;;13.77;67.76;98721.75;5020494;28;20080;-64
2022/09/21 03:04:29;;;;;;;3.63;0.90;;;;;;;13.85;67.26;98724.34;5011830;28;20076;-63
2022/09/21 03:06:55;;;;;;;3.22;1.02;;;;;;;13.89;66.53;98720.47;4969520;28;21809;-64
2022/09/21 03:09:23;;;;;;;2.78;0.98;;;;;;;13.96;67.36;98718.81;5005479;28;20049;-63
2022/09/21 03:11:49;;;;;;;3.88;1.10;;;;;;;13.89;67.10;98702.16;5018095;28;20487;-64
2022/09/21 03:14:15;;;;;;;3.83;1.15;;;;;;;13.94;67.33;98723.38;5017637;28;20607;-63
2022/09/21 03:16:41;;;;;;;3.28;1.05;;;;;;;13.92;68.99;98729.75;5020000;28;20046;-63
2022/09/21 03:19:06;;;;;;;3.65;1.30;;;;;;;13.97;68.38;98727.47;5020324;28;20042;-64
2022/09/21 03:21:31;;;;;;;3.55;1.10;;;;;;;14.08;68.26;98731.56;5020124;28;20021;-63
2022/09/21 03:23:57;;;;;;;3.33;1.00;;;;;;;14.10;67.54;98725.19;5018647;28;20033;-63
2022/09/21 03:26:22;;;;;;;3.33;1.13;;;;;;;14.17;67.59;98728.78;5033162;28;20320;-60
2022/09/21 03:28:48;;;;;;;2.63;0.90;;;;;;;14.20;67.69;98727.59;4998748;28;20468;-64
2022/09/21 03:31:14;;;;;;;3.00;1.10;;;;;;;14.22;67.75;98736.13;5004693;28;20045;-62
2022/09/21 03:33:40;;;;;;;4.75;0.90;;;;;;;14.17;67.57;98733.19;5007303;28;20061;-64
2022/09/21 03:36:06;;;;;;;2.85;1.10;;;;;;;14.14;67.60;98742.16;5029186;28;20617;-64
2022/09/21 03:38:32;;;;;;;2.78;1.00;;;;;;;14.15;67.34;98735.16;5024513;28;20099;-63
2022/09/21 03:40:58;;;;;;;3.30;1.08;;;;;;;13.91;67.05;98696.75;5000751;28;20314;-64
2022/09/21 03:43:24;;;;;;;2.78;0.90;;;;;;;14.12;67.33;98741.50;5025363;28;20040;-64
2022/09/21 03:45:49;;;;;;;2.60;0.90;;;;;;;14.01;66.74;98729.59;5020391;28;20030;-63
2022/09/21 03:48:15;;;;;;;3.85;1.27;;;;;;;14.01;67.35;98728.78;5025997;28;20159;-63
2022/09/21 03:50:41;;;;;;;2.50;0.85;;;;;;;14.06;67.62;98744.00;5021713;28;20029;-64
2022/09/21 03:53:09;;;;;;;4.53;1.10;;;;;;;14.03;66.81;98738.06;5040000;28;20384;-63
2022/09/21 03:55:34;;;;;;;3.22;1.05;;;;;;;14.11;66.07;98733.81;5023384;28;20108;-63
2022/09/21 03:58:00;;;;;;;3.10;1.00;;;;;;;13.69;66.37;98691.22;5023237;28;20175;-63
2022/09/21 04:00:25;;;;;;;3.42;1.00;;;;;;;13.98;65.65;98742.16;5007052;28;20654;-63
2022/09/21 04:02:51;;;;;;;4.60;0.90;;;;;;;13.71;65.01;98704.09;5024767;28;20033;-63
2022/09/21 04:05:16;;;;;;;4.10;1.08;;;;;;;13.78;65.11;98713.75;5006689;28;20033;-63
2022/09/21 04:07:44;;;;;;;3.22;0.80;;;;;;;13.95;64.64;98748.56;4925281;28;20712;-64
2022/09/21 04:10:12;;;;;;;3.25;1.20;;;;;;;13.95;64.43;98750.34;5021529;28;20044;-63
2022/09/21 04:12:40;;;;;;;2.65;0.98;;;;;;;13.92;62.81;98748.88;5002432;28;20121;-64
2022/09/21 04:15:06;;;;;;;4.13;0.98;;;;;;;13.96;62.27;98738.91;5023690;28;20037;-63
2022/09/21 04:17:32;;;;;;;3.80;1.20;;;;;;;14.06;62.32;98751.84;5023354;28;20064;-63
2022/09/21 04:19:58;;;;;;;4.30;1.00;;;;;;;14.09;61.86;98754.09;5014808;28;20133;-63
2022/09/21 04:22:24;;;;;;;3.10;0.82;;;;;;;14.06;62.32;98754.44;5031924;28;20519;-64
2022/09/21 04:24:50;;;;;;;2.65;0.88;;;;;;;14.08;62.71;98761.13;5008935;28;20029;-64
2022/09/21 04:27:16;;;;;;;3.70;1.00;;;;;;;14.10;61.57;98756.56;4998631;28;20128;-64
2022/09/21 04:29:43;;;;;;;4.60;1.20;;;;;;;13.79;61.73;98719.78;5007871;28;20026;-64
2022/09/21 04:32:09;;;;;;;3.50;0.98;;;;;;;14.05;61.45;98766.69;5020999;28;20080;-64
2022/09/21 04:34:36;;;;;;;3.55;1.00;;;;;;;13.79;61.44;98707.53;5022429;28;20076;-63
2022/09/21 04:37:01;;;;;;;3.13;0.80;;;;;;;14.09;61.00;98759.31;5003652;28;20038;-63
2022/09/21 04:39:26;;;;;;;2.67;0.90;;;;;;;14.07;61.16;98756.06;5009175;28;20044;-63
2022/09/21 04:41:52;;;;;;;3.50;0.90;;;;;;;14.02;61.25;98752.16;5002024;28;20029;-62
2022/09/21 04:44:18;;;;;;;3.33;0.90;;;;;;;14.02;61.80;98760.00;5040746;28;20499;-64
2022/09/21 04:46:43;;;;;;;2.70;0.88;;;;;;;14.03;61.07;98753.75;5007650;28;20179;-62
2022/09/21 04:49:09;;;;;;;3.15;1.00;;;;;;;14.01;60.84;98749.69;4983891;28;20052;-64
2022/09/21 04:51:35;;;;;;;3.88;1.00;;;;;;;14.07;60.76;98758.69;5021670;28;20492;-63
2022/09/21 04:54:01;;;;;;;4.43;1.15;;;;;;;14.02;60.93;98748.72;5014812;28;20925;-63
2022/09/21 04:56:26;;;;;;;3.80;1.02;;;;;;;13.73;61.18;98708.19;5014951;28;20630;-63
2022/09/21 04:58:52;;;;;;;2.67;0.90;;;;;;;14.06;61.03;98764.91;5003129;28;20034;-64
2022/09/21 05:01:17;;;;;;;2.78;0.88;;;;;;;14.08;60.92;98773.41;5000031;28;20088;-63
2022/09/21 05:03:43;;;;;;;3.35;1.10;;;;;;;14.15;60.83;98775.19;5031403;28;20037;-63
2022/09/21 05:06:12;;;;;;;2.63;0.90;;;;;;;14.15;60.93;98775.19;4994843;28;20060;-63
2022/09/21 05:11:22;;;;;;;3.20;0.88;;;;;;;14.15;60.14;98775.19;5020156;28;20138;-63
2022/09/21 05:13:47;;;;;;;6.45;1.20;;;;;;;14.23;59.91;98782.22;5020368;28;20152;-62
2022/09/21 05:16:14;;;;;;;4.68;1.02;;;;;;;14.20;60.22;98774.69;5035091;28;20021;-63
2022/09/21 05:18:40;;;;;;;2.65;0.95;;;;;;;14.23;59.75;98776.97;5031106;28;20172;-63
2022/09/21 05:21:06;;;;;;;2.85;0.93;;;;;;;14.31;59.87;98791.84;4994472;28;20771;-63
2022/09/21 05:23:32;;;;;;;3.00;0.88;;;;;;;14.40;59.11;98783.00;4933553;28;20033;-63
2022/09/21 05:25:58;;;;;;;2.50;0.80;;;;;;;14.38;59.64;98791.03;5001236;28;20060;-63
2022/09/21 05:28:24;;;;;;;6.10;1.20;;;;;;;14.19;58.98;98750.34;5026972;28;20043;-63
2022/09/21 05:30:57;;;;;;;3.70;1.15;;;;;;;14.38;59.39;98796.28;5014676;28;20037;-63
2022/09/21 05:33:25;;;;;;;3.00;0.70;;;;;;;14.37;59.60;98792.00;5036176;28;20017;-63
2022/09/21 05:36:03;;;;;;;2.35;0.80;;;;;;;14.46;58.63;98799.88;5007047;28;20040;-63
2022/09/21 05:38:29;;;;;;;3.17;1.00;;;;;;;14.13;58.19;98758.84;5033169;28;20619;-63
2022/09/21 05:40:54;;;;;;;2.70;1.00;;;;;;;14.40;58.16;98799.53;5011765;28;20037;-62
2022/09/21 05:43:20;;;;;;;3.63;1.05;;;;;;;14.47;58.06;98791.84;5000066;28;20069;-62
2022/09/21 05:45:50;;;;;;;4.70;1.17;;;;;;;14.44;58.29;98800.03;4996667;28;20505;-60
2022/09/21 05:48:22;;;;;;;3.97;0.88;;;;;;;14.43;57.54;98801.00;5019609;28;20060;-61
2022/09/21 05:50:51;;;;;;;3.67;0.93;;;;;;;14.41;57.24;98800.34;5021625;28;20025;-59
2022/09/21 05:53:28;;;;;;;2.97;1.02;;;;;;;14.43;57.20;98811.47;5021182;28;20023;-60
2022/09/21 05:55:59;;;;;;;3.00;0.82;;;;;;;14.18;57.03;98766.19;5026492;28;20060;-60
2022/09/21 05:58:39;;;;;;;2.97;0.93;;;;;;;14.47;56.78;98812.75;4999016;28;20022;-61
2022/09/21 06:01:26;;;;;;;2.95;0.80;;;;;;;14.47;57.15;98814.56;5014127;28;20036;-60
2022/09/21 06:03:53;;;;;;;2.05;0.70;;;;;;;14.47;57.73;98818.00;5017369;28;20037;-59
2022/09/21 06:06:18;;;;;;;3.17;0.90;;;;;;;14.40;57.13;98817.00;5017454;28;20052;-60
2022/09/21 06:08:44;;;;;;;2.90;0.98;;;;;;;14.58;56.48;98825.56;5016741;28;20640;-60
2022/09/21 06:11:09;;;;;;;3.50;0.88;;;;;;;14.31;56.05;98786.63;4956800;28;20033;-60
2022/09/21 06:13:36;;;;;;;4.35;0.95;;;;;;;14.55;56.28;98840.75;5033123;28;20428;-60
2022/09/21 06:16:02;;;;;;;3.33;1.00;;;;;;;14.52;55.91;98833.22;5018486;28;20115;-60
2022/09/21 06:18:27;;;;;;;3.47;0.88;;;;;;;14.57;56.51;98844.00;5004281;28;20120;-61
2022/09/21 06:20:53;;;;;;;2.90;0.90;;;;;;;14.54;56.27;98841.72;5018946;28;20459;-61
2022/09/21 06:23:18;;;;;;;6.72;1.10;;;;;;;14.56;56.69;98837.94;5022404;28;20013;-61
2022/09/21 06:25:44;;;;;;;6.30;1.20;;;;;;;14.58;56.73;98867.44;5020057;28;20025;-61
2022/09/21 06:28:11;;;;;;;2.72;0.90;;;;;;;14.61;57.38;98868.88;5019164;28;20025;-60
2022/09/21 06:30:40;;;;;;;3.72;0.90;;;;;;;14.61;57.19;98858.41;4998205;28;20026;-61
2022/09/21 06:33:06;;;;;;;3.88;1.08;;;;;;;14.64;58.22;98873.81;5020162;28;20059;-60
2022/09/21 06:35:33;;;;;;;5.97;1.20;;;;;;;14.58;59.48;98866.59;5020500;28;20056;-61
2022/09/21 06:37:59;;;;;;;4.82;1.15;;;;;;;14.58;59.75;98874.44;5001650;28;20029;-61
2022/09/21 06:40:29;;;;;;;4.60;1.25;;;;;;;14.76;58.96;98875.09;5020891;28;20034;-60
2022/09/21 06:42:56;;;;;;;4.20;1.30;;;;;;;14.75;59.21;98876.09;5019717;28;20025;-60
2022/09/21 06:45:22;;;;;;;8.02;1.52;;;;;;;14.77;59.13;98875.91;5022426;28;20515;-60
2022/09/21 06:47:47;;;;;;;7.25;1.58;;;;;;;14.73;58.77;98866.75;5032400;28;20072;-60
2022/09/21 06:50:13;;;;;;;4.78;1.52;;;;;;;14.84;58.12;98878.69;5011870;28;20037;-60
2022/09/21 06:52:39;;;;;;;4.45;1.30;;;;;;;14.87;58.63;98888.81;5020208;28;20104;-60
2022/09/21 06:55:05;;;;;;;4.53;1.50;;;;;;;14.91;58.04;98890.97;5014306;28;20115;-59
2022/09/21 06:57:31;;;;;;;4.65;1.40;;;;;;;14.93;58.17;98899.47;5014424;28;20017;-60
2022/09/21 06:59:56;;;;;;;5.07;1.30;;;;;;;14.68;58.22;98859.41;5019655;28;20528;-60
2022/09/21 07:02:22;;;;;;;8.38;1.45;;;;;;;14.99;58.15;98903.22;5006605;28;20109;-60
2022/09/21 07:04:47;;;;;;;6.28;1.10;;;;;;;15.03;57.39;98890.63;5025236;28;20035;-60
2022/09/21 07:07:12;;;;;;;3.75;1.20;;;;;;;14.85;57.14;98867.25;5021933;28;20026;-59
2022/09/21 07:09:38;;;;;;;6.10;1.10;;;;;;;15.06;57.16;98904.19;4943164;28;20172;-58
2022/09/21 07:12:06;;;;;;;4.85;1.10;;;;;;;15.03;57.49;98895.84;5020471;28;20033;-59
2022/09/21 07:14:32;;;;;;;3.97;1.00;;;;;;;15.03;57.18;98894.03;5021411;28;20057;-60
2022/09/21 07:16:58;;;;;;;3.70;1.00;;;;;;;15.14;57.13;98898.94;5022397;28;20021;-60
2022/09/21 07:19:23;;;;;;;5.45;1.20;;;;;;;15.15;57.14;98894.50;5023961;28;20029;-60
2022/09/21 07:21:48;;;;;;;3.20;1.00;;;;;;;15.29;57.14;98895.63;5023810;28;20122;-59
2022/09/21 07:24:14;;;;;;;4.20;1.15;;;;;;;15.25;57.29;98902.19;5022902;28;20233;-60
2022/09/21 07:26:39;;;;;;;3.85;1.20;;;;;;;15.22;57.06;98887.59;5021118;28;20587;-60
2022/09/21 07:29:05;;;;;;;3.50;0.88;;;;;;;15.28;57.45;98900.06;5016573;28;20045;-60
2022/09/21 07:31:30;;;;;;;5.63;1.20;;;;;;;15.33;57.24;98899.53;4949471;28;20742;-60
2022/09/21 07:33:57;;;;;;;3.58;1.10;;;;;;;15.23;57.37;98901.53;5023942;28;20645;-59
2022/09/21 07:36:23;;;;;;;5.25;1.30;;;;;;;15.26;58.22;98916.91;5005374;28;20036;-60
2022/09/21 07:38:48;;;;;;;4.45;1.10;;;;;;;15.27;58.41;98914.13;5024189;28;20037;-59
2022/09/21 07:41:14;;;;;;;4.57;1.23;;;;;;;15.24;59.34;98916.25;5022885;28;20027;-59
2022/09/21 07:43:40;;;;;;;4.50;1.30;;;;;;;15.30;59.24;98911.19;5015883;28;20487;-60
2022/09/21 07:46:10;;;;;;;4.38;1.10;;;;;;;15.30;59.61;98919.03;5020346;28;20029;-61
2022/09/21 07:48:36;;;;;;;6.82;1.88;;;;;;;15.34;59.55;98936.03;5023313;28;20045;-59
2022/09/21 07:51:13;;;;;;;5.97;1.60;;;;;;;15.35;59.61;98929.00;5012582;28;20032;-60
2022/09/21 07:53:40;;;;;;;6.07;1.17;;;;;;;15.34;60.21;98933.44;5015861;28;20026;-59
2022/09/21 07:56:09;;;;;;;6.30;1.48;;;;;;;15.29;60.40;98940.16;5015756;28;20120;-59
2022/09/21 08:01:19;;;;;;;5.70;1.60;;;;;;;15.40;61.06;98952.91;5021751;28;20075;-59
2022/09/21 08:03:47;;;;;;;5.25;1.40;;;;;;;15.42;61.32;98961.41;5023350;28;20408;-60
2022/09/21 08:06:12;;;;;;;4.47;1.17;;;;;;;15.11;60.71;98933.31;5020156;28;20057;-61
2022/09/21 08:08:38;;;;;;;3.97;1.08;;;;;;;15.30;61.26;98960.94;5025185;28;20097;-60
2022/09/21 08:11:07;;;;;;;5.10;1.45;;;;;;;15.18;61.95;98951.78;4959952;28;20051;-61
2022/09/21 08:13:32;;;;;;;4.83;1.53;;;;;;;15.24;62.11;98953.75;5018576;28;20052;-60
2022/09/21 08:15:59;;;;;;;5.32;1.48;;;;;;;15.24;62.36;98974.72;5002465;28;20624;-60
2022/09/21 08:18:24;;;;;;;4.00;1.35;;;;;;;15.26;63.58;98975.38;5022839;28;20441;-60
2022/09/21 08:20:59;;;;;;;5.25;1.23;;;;;;;15.34;64.51;98974.53;5006615;28;20033;-60
2022/09/21 08:23:27;;;;;;;4.25;1.20;;;;;;;15.34;65.90;98977.16;5037574;28;20120;-60
2022/09/21 08:25:57;;;;;;;4.03;1.40;;;;;;;15.36;65.44;98973.38;5006938;28;20782;-61
2022/09/21 08:28:24;;;;;;;6.18;1.35;;;;;;;15.47;64.83;98980.06;5015905;28;20032;-61
2022/09/21 08:30:49;;;;;;;5.53;1.70;;;;;;;15.53;64.63;98983.81;5005992;28;20068;-60
2022/09/21 08:33:15;;;;;;;4.75;1.48;;;;;;;15.35;64.56;98987.47;5005105;28;20112;-61
2022/09/21 08:35:40;;;;;;;4.55;1.40;;;;;;;15.27;63.48;98984.03;5019101;28;20105;-60
2022/09/21 08:38:05;;;;;;;4.50;1.50;;;;;;;14.64;64.34;98930.53;5021503;28;20724;-60
2022/09/21 08:40:32;;;;;;;3.88;1.40;;;;;;;14.98;64.66;98977.50;5023875;28;20039;-60
2022/09/21 08:43:05;;;;;;;4.65;1.50;;;;;;;15.00;64.12;98983.38;5020760;28;20021;-60
2022/09/21 08:45:37;;;;;;;5.90;1.33;;;;;;;15.05;63.58;98988.97;5034937;28;20483;-60
2022/09/21 08:48:06;;;;;;;6.03;1.60;;;;;;;15.24;63.72;98985.19;5022270;28;20029;-60
2022/09/21 08:50:48;;;;;;;5.55;1.38;;;;;;;15.42;64.02;98997.28;4938064;28;20052;-60
2022/09/21 08:53:21;;;;;;;7.20;1.40;;;;;;;15.47;64.40;99005.47;5022525;28;20499;-61
2022/09/21 08:55:46;;;;;;;5.00;1.30;;;;;;;15.52;63.29;98998.72;5019362;28;20028;-61
2022/09/21 08:58:28;;;;;;;4.28;1.30;;;;;;;15.58;63.75;99008.53;5005632;28;20021;-60
2022/09/21 09:01:22;;;;;;;5.30;1.20;;;;;;;15.28;63.94;98983.06;5005184;28;20037;-60
2022/09/21 09:04:15;;;;;;;5.03;1.50;;;;;;;15.49;64.77;99019.22;5022819;28;20041;-60
2022/09/21 09:06:53;;;;;;;5.32;1.30;;;;;;;15.46;65.76;99028.25;5016032;28;20026;-60
2022/09/21 09:09:56;;;;;;;5.13;1.23;;;;;;;15.52;66.02;99014.47;5012015;28;20029;-60
2022/09/21 09:12:47;;;;;;;3.70;1.08;;;;;;;15.55;66.52;99018.53;4993024;28;20069;-61
2022/09/21 09:15:45;;;;;;;7.18;1.60;;;;;;;15.45;65.40;99013.50;5021975;28;20021;-60
2022/09/21 09:18:20;;;;;;;4.18;1.20;;;;;;;15.45;64.98;99016.09;5016879;28;20045;-60
2022/09/21 09:20:51;;;;;;;6.63;1.27;;;;;;;15.69;64.72;99015.22;5016070;28;20128;-60
2022/09/21 09:23:26;;;;;;;3.42;1.20;;;;;;;15.79;64.48;99020.34;5017837;28;20037;-60
2022/09/21 09:25:57;;;;;;;5.00;1.40;;;;;;;15.81;64.44;99020.97;5002937;28;20045;-61
2022/09/21 09:28:31;;;;;;;3.35;1.30;;;;;;;15.76;62.99;99031.16;5020806;28;20075;-60
2022/09/21 09:31:24;;;;;;;6.00;1.50;;;;;;;15.88;63.35;99028.97;4951508;28;20543;-60
2022/09/21 09:33:54;;;;;;;4.88;1.42;;;;;;;15.86;62.31;99031.78;5016548;28;20056;-60
2022/09/21 09:36:22;;;;;;;6.13;1.30;;;;;;;15.83;62.50;99033.94;5022204;28;20029;-60
2022/09/21 09:39:02;;;;;;;4.30;1.30;;;;;;;15.81;63.09;99031.47;5003538;28;20508;-60
2022/09/21 09:41:47;;;;;;;3.92;1.27;;;;;;;15.83;62.79;99032.13;5017141;28;20033;-60
2022/09/21 09:44:41;;;;;;;5.30;1.35;;;;;;;15.62;62.98;99000.34;5022956;28;20033;-60
2022/09/21 09:47:37;;;;;;;3.35;1.20;;;;;;;15.64;62.42;98995.75;5036451;28;20029;-60
2022/09/21 09:50:14;;;;;;;5.70;1.27;;;;;;;15.95;62.33;99033.41;5021024;28;20436;-60
2022/09/21 09:52:40;;;;;;;5.30;1.42;;;;;;;15.89;62.15;99030.63;5020173;28;20199;-61
2022/09/21 09:55:21;;;;;;;8.27;1.67;;;;;;;15.90;61.49;99021.78;5017061;28;20520;-58
2022/09/21 09:57:48;;;;;;;6.93;1.83;;;;;;;15.98;60.90;99019.13;5014917;28;20084;-60
2022/09/21 10:00:16;;;;;;;5.72;1.50;;;;;;;15.94;61.35;99015.22;5012237;28;20025;-60
2022/09/21 10:02:52;;;;;;;4.40;1.60;;;;;;;16.06;60.81;99026.13;5012060;28;20036;-61
2022/09/21 10:05:37;;;;;;;4.13;1.40;;;;;;;16.06;60.84;99018.25;4999461;28;20147;-60
2022/09/21 10:08:03;;;;;;;4.65;1.27;;;;;;;15.94;61.04;99017.84;5018640;28;20033;-60
2022/09/21 10:10:29;;;;;;;4.03;1.38;;;;;;;15.80;60.56;99010.66;5019356;28;20624;-59
2022/09/21 10:13:17;;;;;;;8.63;1.55;;;;;;;15.93;60.10;99019.66;5016168;28;20037;-60
2022/09/21 10:15:50;;;;;;;6.30;1.60;;;;;;;15.98;60.24;99021.75;5014433;28;20042;-60
2022/09/21 10:18:39;;;;;;;5.28;1.50;;;;;;;15.97;59.83;99019.28;5032565;28;20191;-60
2022/09/21 10:21:24;;;;;;;4.65;1.50;;;;;;;16.07;59.20;99025.16;5014517;28;20029;-60
2022/09/21 10:23:55;;;;;;;6.18;1.40;;;;;;;15.91;59.35;98974.38;5033689;28;20057;-60
2022/09/21 10:26:21;;;;;;;9.80;1.95;;;;;;;16.14;58.79;99013.81;5019927;28;20391;-60
2022/09/21 10:29:16;;;;;;;5.45;1.20;;;;;;;16.11;58.74;99013.34;5019055;28;20041;-61
2022/09/21 10:32:00;;;;;;;4.75;1.27;;;;;;;15.97;58.88;99017.47;5022886;28;20028;-61
2022/09/21 10:34:29;;;;;;;7.10;1.90;;;;;;;15.81;58.99;99015.75;5019072;28;20034;-60
2022/09/21 10:36:56;;;;;;;4.60;1.60;;;;;;;15.82;59.95;99017.34;5002664;28;20017;-60
2022/09/21 10:39:32;;;;;;;3.30;1.20;;;;;;;15.88;59.68;99015.88;5027518;28;20026;-60
2022/09/21 10:42:13;;;;;;;4.43;1.20;;;;;;;16.06;59.23;99010.41;5010151;28;20029;-59
2022/09/21 10:44:42;;;;;;;6.78;1.60;;;;;;;16.15;60.70;99017.25;5021557;28;20032;-61
2022/09/21 10:47:38;;;;;;;6.85;1.65;;;;;;;16.18;59.78;99009.03;5019547;28;20041;-60
2022/09/21 10:50:19;;;;;;;4.05;1.55;;;;;;;16.25;59.87;99003.94;5014191;28;20126;-60
2022/09/21 10:52:45;;;;;;;5.13;2.20;;;;;;;16.05;59.66;99008.78;5015079;28;20026;-61
2022/09/21 10:55:30;;;;;;;3.95;1.38;;;;;;;15.80;60.15;99011.47;5016556;28;20033;-60
2022/09/21 10:57:57;;;;;;;3.90;1.42;;;;;;;16.02;60.34;99009.09;5013104;28;20153;-59
2022/09/21 11:00:30;;;;;;;3.72;1.15;;;;;;;16.21;60.16;99013.97;5017886;28;20072;-60
2022/09/21 11:02:59;;;;;;;4.70;1.50;;;;;;;16.17;60.73;99011.81;5013536;28;20374;-59
2022/09/21 11:05:32;;;;;;;4.88;1.52;;;;;;;15.79;61.03;98973.16;5012945;28;20472;-60
2022/09/21 11:08:01;;;;;;;4.07;1.50;;;;;;;15.52;61.21;98979.59;5000405;28;20410;-59
2022/09/21 11:10:35;;;;;;;4.75;1.58;;;;;;;15.58;61.75;98978.91;5019671;28;20029;-60
2022/09/21 11:13:20;;;;;;;5.47;1.60;;;;;;;15.75;61.31;99013.78;5019299;28;20035;-60
2022/09/21 11:15:53;;;;;;;4.55;1.50;;;;;;;15.76;61.45;99020.66;4999230;28;20382;-60
2022/09/21 11:18:44;;;;;;;4.03;1.50;;;;;;;15.86;61.69;99010.81;5016066;28;20032;-59
2022/09/21 11:21:26;;;;;;;4.72;1.60;;;;;;;15.90;61.77;99019.97;5032930;28;20029;-62
2022/09/21 11:24:03;;;;;;;6.28;1.40;;;;;;;15.86;60.81;99023.09;5011420;28;20176;-61
2022/09/21 11:26:43;;;;;;;6.28;1.52;;;;;;;15.77;60.84;99014.44;5020128;28;20064;-61
2022/09/21 11:29:14;;;;;;;3.95;1.35;;;;;;;15.81;61.32;99005.25;5018609;28;20030;-61
2022/09/21 11:32:04;;;;;;;6.32;2.08;;;;;;;15.92;61.49;99020.63;5029952;28;20072;-60
2022/09/21 11:34:43;;;;;;;6.35;1.50;;;;;;;15.79;61.45;99012.47;5028179;28;20041;-61
2022/09/21 11:37:27;;;;;;;3.90;1.60;;;;;;;15.51;61.88;98981.38;5018605;28;20033;-61
2022/09/21 11:40:06;;;;;;;4.13;1.50;;;;;;;15.61;63.12;98978.56;5018000;28;20030;-61
2022/09/21 11:42:46;;;;;;;4.05;1.77;;;;;;;15.76;62.00;99012.81;5009994;28;20563;-61
2022/09/21 11:45:27;;;;;;;3.50;1.38;;;;;;;15.61;61.82;98968.09;5018591;28;20033;-62
2022/09/21 11:47:59;;;;;;;5.97;1.77;;;;;;;15.68;61.91;99008.38;5018930;28;20036;-61
2022/09/21 11:50:27;;;;;;;6.18;1.50;;;;;;;15.79;62.42;99012.47;5003391;28;20993;-61
2022/09/21 11:53:24;;;;;;;4.20;1.63;;;;;;;15.75;61.61;99009.38;5022238;28;20152;-61
2022/09/21 11:56:39;;;;;;;5.15;2.17;;;;;;;15.67;62.50;99003.28;5023573;28;20018;-60
2022/09/21 11:59:45;;;;;;;3.70;1.30;;;;;;;15.76;61.71;98999.69;5033759;28;20045;-61